Portada
METAR-TAF:

METAR-TAF

Aeropuertos :

Usak, Turquía

latitud: 38-40N, longitud: 029-25E, altitud: 919 m

Observación

El informe se hizo hace 10 horas y 17 minutos, a las 13:50 UTC
Viento 8 kt del sur
Temperatura 9°C
Humedad 81%
Presión 1005 hPa
Visibilidad 10 km o más
Cielo nuboso a una altura de 3000 ft
Cielo cubierto a una altura de 8000 ft

METAR: LTBO 131350Z 17008KT 9999 BKN030 OVC080 09/06 Q1005

Hora: 03:07 (00:07 UTC)

Pronóstico

El informe se hizo hace 7 horas y 27 minutos, a las 16:40 UTC
Pronóstico válido del 13 a las 18 UTC al 14 a las 03 UTC
Viento 2 kt con dirección variable
Visibilidad 10 km o más
Nubes dispersas a una altura de 3000 ft
Cielo nuboso a una altura de 9000 ft
Temporalmente
del 13 a las 18 UTC al 13 a las 21 UTC
chaparrones de lluvia

TAF: LTBO 131640Z 1318/1403 VRB02KT 9999 SCT030 BKN090 TEMPO 1318/1321 -SHRA

Observaciones y pronósticos meteorológicos de más de 4000 aeropuertos (mensajes METAR y TAF).

Los puntos amarillos y rojos representan las estaciones disponibles.

Ponga el ratón en el punto deseado para ver el nombre de la estación.

Haga clic para ver las observaciones y los pronósticos meteorológicos.

Para cambiar el mapa : haga clic en los botones verdes con una cruz de color negro para hacer un zoom, en el botón verde con un guión para alejar o en las flechas verdes para mapas adyacentes.


METAR-TAF: